sensor_id;sensor_type;location;lat;lon;timestamp;temperature;humidity
19803;DHT22;66074;50.764;6.090;2023-03-31T00:02:17;12.10;99.90
19803;DHT22;66074;50.764;6.090;2023-03-31T00:04:46;12.10;99.90
19803;DHT22;66074;50.764;6.090;2023-03-31T00:07:17;12.10;99.90
19803;DHT22;66074;50.764;6.090;2023-03-31T00:09:47;12.10;99.90
19803;DHT22;66074;50.764;6.090;2023-03-31T00:12:15;12.10;99.90
19803;DHT22;66074;50.764;6.090;2023-03-31T00:14:42;12.10;99.90
19803;DHT22;66074;50.764;6.090;2023-03-31T00:17:09;12.20;99.90
19803;DHT22;66074;50.764;6.090;2023-03-31T00:19:35;12.20;99.90
19803;DHT22;66074;50.764;6.090;2023-03-31T00:22:01;12.20;99.90
19803;DHT22;66074;50.764;6.090;2023-03-31T00:24:30;12.20;99.90
19803;DHT22;66074;50.764;6.090;2023-03-31T00:27:01;12.30;99.90
19803;DHT22;66074;50.764;6.090;2023-03-31T00:29:27;12.30;99.90
19803;DHT22;66074;50.764;6.090;2023-03-31T00:31:53;12.30;99.90
19803;DHT22;66074;50.764;6.090;2023-03-31T00:34:20;12.30;99.90
19803;DHT22;66074;50.764;6.090;2023-03-31T00:36:46;12.30;99.90
19803;DHT22;66074;50.764;6.090;2023-03-31T00:39:14;12.40;99.90
19803;DHT22;66074;50.764;6.090;2023-03-31T00:41:40;12.40;99.90
19803;DHT22;66074;50.764;6.090;2023-03-31T00:44:16;12.40;99.90
19803;DHT22;66074;50.764;6.090;2023-03-31T00:46:54;12.40;99.90
19803;DHT22;66074;50.764;6.090;2023-03-31T00:54:46;12.40;99.90
19803;DHT22;66074;50.764;6.090;2023-03-31T00:57:14;12.40;99.90
19803;DHT22;66074;50.764;6.090;2023-03-31T00:59:45;12.40;99.90
19803;DHT22;66074;50.764;6.090;2023-03-31T01:02:13;12.40;99.90
19803;DHT22;66074;50.764;6.090;2023-03-31T01:04:44;12.40;99.90
19803;DHT22;66074;50.764;6.090;2023-03-31T01:07:19;12.40;99.90
19803;DHT22;66074;50.764;6.090;2023-03-31T01:09:48;12.30;99.90
19803;DHT22;66074;50.764;6.090;2023-03-31T01:12:16;12.30;99.90
19803;DHT22;66074;50.764;6.090;2023-03-31T01:14:42;12.40;99.90
19803;DHT22;66074;50.764;6.090;2023-03-31T01:17:08;12.40;99.90
19803;DHT22;66074;50.764;6.090;2023-03-31T01:22:54;12.30;99.90
19803;DHT22;66074;50.764;6.090;2023-03-31T01:25:51;12.20;99.90
19803;DHT22;66074;50.764;6.090;2023-03-31T01:28:40;12.30;99.90
19803;DHT22;66074;50.764;6.090;2023-03-31T01:34:20;12.30;99.90
19803;DHT22;66074;50.764;6.090;2023-03-31T01:42:10;12.30;99.90
19803;DHT22;66074;50.764;6.090;2023-03-31T01:47:18;12.30;99.90
19803;DHT22;66074;50.764;6.090;2023-03-31T01:52:29;12.30;99.90
19803;DHT22;66074;50.764;6.090;2023-03-31T01:55:07;12.30;99.90
19803;DHT22;66074;50.764;6.090;2023-03-31T01:57:46;12.30;99.90
19803;DHT22;66074;50.764;6.090;2023-03-31T02:00:17;12.30;99.90
19803;DHT22;66074;50.764;6.090;2023-03-31T02:02:58;12.30;99.90
19803;DHT22;66074;50.764;6.090;2023-03-31T02:05:34;12.20;99.90
19803;DHT22;66074;50.764;6.090;2023-03-31T02:08:11;12.20;99.90
19803;DHT22;66074;50.764;6.090;2023-03-31T02:10:40;12.20;99.90
19803;DHT22;66074;50.764;6.090;2023-03-31T02:13:08;12.20;99.90
19803;DHT22;66074;50.764;6.090;2023-03-31T02:15:38;12.30;99.90
19803;DHT22;66074;50.764;6.090;2023-03-31T02:18:06;12.20;99.90
19803;DHT22;66074;50.764;6.090;2023-03-31T02:20:38;12.20;99.90
19803;DHT22;66074;50.764;6.090;2023-03-31T02:23:07;12.10;99.90
19803;DHT22;66074;50.764;6.090;2023-03-31T02:25:37;12.10;99.90
19803;DHT22;66074;50.764;6.090;2023-03-31T02:28:08;12.00;99.90
19803;DHT22;66074;50.764;6.090;2023-03-31T02:33:27;12.00;99.90
19803;DHT22;66074;50.764;6.090;2023-03-31T02:35:53;12.00;99.90
19803;DHT22;66074;50.764;6.090;2023-03-31T02:38:18;12.00;99.90
19803;DHT22;66074;50.764;6.090;2023-03-31T02:40:44;12.00;99.90
19803;DHT22;66074;50.764;6.090;2023-03-31T02:43:10;11.90;99.90
19803;DHT22;66074;50.764;6.090;2023-03-31T02:48:06;11.90;99.90
19803;DHT22;66074;50.764;6.090;2023-03-31T03:13:14;11.90;99.90
19803;DHT22;66074;50.764;6.090;2023-03-31T03:15:48;11.90;99.80
19803;DHT22;66074;50.764;6.090;2023-03-31T03:18:15;11.90;99.70
19803;DHT22;66074;50.764;6.090;2023-03-31T03:20:42;11.90;99.70
19803;DHT22;66074;50.764;6.090;2023-03-31T03:23:13;11.90;99.70
19803;DHT22;66074;50.764;6.090;2023-03-31T03:25:38;11.90;99.60
19803;DHT22;66074;50.764;6.090;2023-03-31T03:28:04;11.90;99.60
19803;DHT22;66074;50.764;6.090;2023-03-31T03:30:30;11.90;99.60
19803;DHT22;66074;50.764;6.090;2023-03-31T03:32:55;11.90;99.60
19803;DHT22;66074;50.764;6.090;2023-03-31T03:35:23;11.90;99.40
19803;DHT22;66074;50.764;6.090;2023-03-31T03:37:49;11.90;99.40
19803;DHT22;66074;50.764;6.090;2023-03-31T03:40:15;11.90;99.40
19803;DHT22;66074;50.764;6.090;2023-03-31T03:42:40;11.90;99.50
19803;DHT22;66074;50.764;6.090;2023-03-31T03:45:06;11.90;99.50
19803;DHT22;66074;50.764;6.090;2023-03-31T03:47:32;11.80;99.40
19803;DHT22;66074;50.764;6.090;2023-03-31T03:49:58;11.90;99.50
19803;DHT22;66074;50.764;6.090;2023-03-31T03:52:24;11.90;99.50
19803;DHT22;66074;50.764;6.090;2023-03-31T03:54:49;11.90;99.40
19803;DHT22;66074;50.764;6.090;2023-03-31T03:57:15;11.90;99.40
19803;DHT22;66074;50.764;6.090;2023-03-31T03:59:41;11.90;99.40
19803;DHT22;66074;50.764;6.090;2023-03-31T04:02:06;11.90;99.40
19803;DHT22;66074;50.764;6.090;2023-03-31T04:04:32;11.80;99.30
19803;DHT22;66074;50.764;6.090;2023-03-31T04:06:57;11.80;99.20
19803;DHT22;66074;50.764;6.090;2023-03-31T04:09:23;11.70;99.20
19803;DHT22;66074;50.764;6.090;2023-03-31T04:11:49;11.70;99.20
19803;DHT22;66074;50.764;6.090;2023-03-31T04:14:14;11.70;99.10
19803;DHT22;66074;50.764;6.090;2023-03-31T04:16:40;11.70;99.10
19803;DHT22;66074;50.764;6.090;2023-03-31T04:19:07;11.70;99.10
19803;DHT22;66074;50.764;6.090;2023-03-31T04:21:32;11.70;99.10
19803;DHT22;66074;50.764;6.090;2023-03-31T04:24:01;11.70;99.10
19803;DHT22;66074;50.764;6.090;2023-03-31T04:26:30;11.60;99.00
19803;DHT22;66074;50.764;6.090;2023-03-31T04:29:08;11.70;98.90
19803;DHT22;66074;50.764;6.090;2023-03-31T04:31:34;11.70;98.90
19803;DHT22;66074;50.764;6.090;2023-03-31T04:34:04;11.70;98.90
19803;DHT22;66074;50.764;6.090;2023-03-31T04:36:33;11.70;98.80
19803;DHT22;66074;50.764;6.090;2023-03-31T04:38:59;11.70;98.70
19803;DHT22;66074;50.764;6.090;2023-03-31T04:41:26;11.70;98.70
19803;DHT22;66074;50.764;6.090;2023-03-31T04:43:52;11.70;98.50
19803;DHT22;66074;50.764;6.090;2023-03-31T04:46:18;11.80;98.70
19803;DHT22;66074;50.764;6.090;2023-03-31T04:48:44;11.80;98.60
19803;DHT22;66074;50.764;6.090;2023-03-31T04:51:10;11.80;98.60
19803;DHT22;66074;50.764;6.090;2023-03-31T04:53:36;11.80;98.60
19803;DHT22;66074;50.764;6.090;2023-03-31T04:56:01;11.90;98.50
19803;DHT22;66074;50.764;6.090;2023-03-31T04:58:28;11.90;98.50
19803;DHT22;66074;50.764;6.090;2023-03-31T05:00:53;11.90;98.50
19803;DHT22;66074;50.764;6.090;2023-03-31T05:03:19;11.90;98.40
19803;DHT22;66074;50.764;6.090;2023-03-31T05:05:46;11.90;98.40
19803;DHT22;66074;50.764;6.090;2023-03-31T05:08:11;11.90;98.40
19803;DHT22;66074;50.764;6.090;2023-03-31T05:10:37;11.90;98.40
19803;DHT22;66074;50.764;6.090;2023-03-31T05:13:02;12.00;98.50
19803;DHT22;66074;50.764;6.090;2023-03-31T05:15:28;11.90;98.50
19803;DHT22;66074;50.764;6.090;2023-03-31T05:17:54;12.00;98.50
19803;DHT22;66074;50.764;6.090;2023-03-31T05:20:20;12.00;98.50
19803;DHT22;66074;50.764;6.090;2023-03-31T05:22:46;12.00;98.50
19803;DHT22;66074;50.764;6.090;2023-03-31T05:25:13;12.00;98.50
19803;DHT22;66074;50.764;6.090;2023-03-31T05:27:43;11.90;98.40
19803;DHT22;66074;50.764;6.090;2023-03-31T05:30:09;11.90;98.50
19803;DHT22;66074;50.764;6.090;2023-03-31T05:32:35;11.90;98.50
19803;DHT22;66074;50.764;6.090;2023-03-31T05:35:01;11.90;98.60
19803;DHT22;66074;50.764;6.090;2023-03-31T05:37:26;11.90;98.70
19803;DHT22;66074;50.764;6.090;2023-03-31T05:39:52;11.80;98.70
19803;DHT22;66074;50.764;6.090;2023-03-31T05:42:19;11.80;98.80
19803;DHT22;66074;50.764;6.090;2023-03-31T05:44:45;11.70;98.70
19803;DHT22;66074;50.764;6.090;2023-03-31T05:47:11;11.70;98.70
19803;DHT22;66074;50.764;6.090;2023-03-31T05:49:37;11.70;98.70
19803;DHT22;66074;50.764;6.090;2023-03-31T05:52:04;11.70;98.70
19803;DHT22;66074;50.764;6.090;2023-03-31T05:54:31;11.70;98.70
19803;DHT22;66074;50.764;6.090;2023-03-31T05:56:57;11.70;98.70
19803;DHT22;66074;50.764;6.090;2023-03-31T05:59:22;11.70;98.70
19803;DHT22;66074;50.764;6.090;2023-03-31T06:01:48;11.70;98.70
19803;DHT22;66074;50.764;6.090;2023-03-31T06:04:14;11.70;98.70
19803;DHT22;66074;50.764;6.090;2023-03-31T06:06:39;11.70;98.70
19803;DHT22;66074;50.764;6.090;2023-03-31T06:09:07;11.80;98.60
19803;DHT22;66074;50.764;6.090;2023-03-31T06:11:33;11.80;98.60
19803;DHT22;66074;50.764;6.090;2023-03-31T06:13:58;11.80;98.50
19803;DHT22;66074;50.764;6.090;2023-03-31T06:16:24;11.90;98.50
19803;DHT22;66074;50.764;6.090;2023-03-31T06:18:50;11.90;98.40
19803;DHT22;66074;50.764;6.090;2023-03-31T06:21:18;12.00;98.50
19803;DHT22;66074;50.764;6.090;2023-03-31T06:23:44;12.00;98.40
19803;DHT22;66074;50.764;6.090;2023-03-31T06:26:17;12.00;98.40
19803;DHT22;66074;50.764;6.090;2023-03-31T06:28:44;12.00;98.40
19803;DHT22;66074;50.764;6.090;2023-03-31T06:31:13;12.20;98.60
19803;DHT22;66074;50.764;6.090;2023-03-31T06:33:40;12.30;98.50
19803;DHT22;66074;50.764;6.090;2023-03-31T06:36:07;12.30;98.30
19803;DHT22;66074;50.764;6.090;2023-03-31T06:38:34;12.30;98.30
19803;DHT22;66074;50.764;6.090;2023-03-31T06:41:01;12.30;98.30
19803;DHT22;66074;50.764;6.090;2023-03-31T06:43:26;12.30;98.30
19803;DHT22;66074;50.764;6.090;2023-03-31T06:45:53;12.40;98.30
19803;DHT22;66074;50.764;6.090;2023-03-31T06:48:19;12.50;98.40
19803;DHT22;66074;50.764;6.090;2023-03-31T06:50:45;12.50;98.30
19803;DHT22;66074;50.764;6.090;2023-03-31T06:53:10;12.60;98.30
19803;DHT22;66074;50.764;6.090;2023-03-31T06:55:37;12.70;98.40
19803;DHT22;66074;50.764;6.090;2023-03-31T06:58:03;12.90;98.40
19803;DHT22;66074;50.764;6.090;2023-03-31T07:00:30;13.00;98.30
19803;DHT22;66074;50.764;6.090;2023-03-31T07:02:56;13.10;98.20
19803;DHT22;66074;50.764;6.090;2023-03-31T07:05:22;13.20;98.20
19803;DHT22;66074;50.764;6.090;2023-03-31T07:07:54;13.20;98.10
19803;DHT22;66074;50.764;6.090;2023-03-31T07:10:21;13.20;98.00
19803;DHT22;66074;50.764;6.090;2023-03-31T07:12:47;13.20;97.90
19803;DHT22;66074;50.764;6.090;2023-03-31T07:15:13;13.30;98.00
19803;DHT22;66074;50.764;6.090;2023-03-31T07:17:39;13.30;97.80
19803;DHT22;66074;50.764;6.090;2023-03-31T07:20:11;13.30;97.70
19803;DHT22;66074;50.764;6.090;2023-03-31T07:22:39;13.30;97.60
19803;DHT22;66074;50.764;6.090;2023-03-31T07:25:07;13.30;97.60
19803;DHT22;66074;50.764;6.090;2023-03-31T07:27:33;13.30;97.60
19803;DHT22;66074;50.764;6.090;2023-03-31T07:29:58;13.30;97.60
19803;DHT22;66074;50.764;6.090;2023-03-31T07:32:24;13.30;97.50
19803;DHT22;66074;50.764;6.090;2023-03-31T07:34:49;13.30;97.60
19803;DHT22;66074;50.764;6.090;2023-03-31T07:37:15;13.40;97.60
19803;DHT22;66074;50.764;6.090;2023-03-31T07:39:41;13.40;97.50
19803;DHT22;66074;50.764;6.090;2023-03-31T07:42:07;13.40;97.50
19803;DHT22;66074;50.764;6.090;2023-03-31T07:44:33;13.40;97.30
19803;DHT22;66074;50.764;6.090;2023-03-31T07:46:59;13.40;97.30
19803;DHT22;66074;50.764;6.090;2023-03-31T07:49:29;13.40;97.30
19803;DHT22;66074;50.764;6.090;2023-03-31T07:51:55;13.40;97.20
19803;DHT22;66074;50.764;6.090;2023-03-31T07:54:21;13.40;97.30
19803;DHT22;66074;50.764;6.090;2023-03-31T07:56:47;13.40;97.30
19803;DHT22;66074;50.764;6.090;2023-03-31T07:59:12;13.50;97.30
19803;DHT22;66074;50.764;6.090;2023-03-31T08:01:38;13.50;97.20
19803;DHT22;66074;50.764;6.090;2023-03-31T08:04:04;13.60;97.30
19803;DHT22;66074;50.764;6.090;2023-03-31T08:06:30;13.80;97.20
19803;DHT22;66074;50.764;6.090;2023-03-31T08:08:56;14.00;97.30
19803;DHT22;66074;50.764;6.090;2023-03-31T08:11:22;13.90;97.10
19803;DHT22;66074;50.764;6.090;2023-03-31T08:13:48;13.90;97.00
19803;DHT22;66074;50.764;6.090;2023-03-31T08:16:14;13.90;96.90
19803;DHT22;66074;50.764;6.090;2023-03-31T08:18:40;13.80;96.90
19803;DHT22;66074;50.764;6.090;2023-03-31T08:21:06;13.80;96.90
19803;DHT22;66074;50.764;6.090;2023-03-31T08:23:34;13.80;96.90
19803;DHT22;66074;50.764;6.090;2023-03-31T08:26:14;13.70;96.70
19803;DHT22;66074;50.764;6.090;2023-03-31T08:28:42;13.70;96.50
19803;DHT22;66074;50.764;6.090;2023-03-31T08:31:08;13.70;96.80
19803;DHT22;66074;50.764;6.090;2023-03-31T08:33:35;13.70;96.80
19803;DHT22;66074;50.764;6.090;2023-03-31T08:36:06;13.80;96.90
19803;DHT22;66074;50.764;6.090;2023-03-31T08:38:34;13.90;96.80
19803;DHT22;66074;50.764;6.090;2023-03-31T08:41:03;14.00;97.00
19803;DHT22;66074;50.764;6.090;2023-03-31T08:43:33;14.10;96.70
19803;DHT22;66074;50.764;6.090;2023-03-31T08:46:03;14.40;96.80
19803;DHT22;66074;50.764;6.090;2023-03-31T08:48:36;14.40;96.80
19803;DHT22;66074;50.764;6.090;2023-03-31T08:51:11;14.40;96.40
19803;DHT22;66074;50.764;6.090;2023-03-31T08:53:43;14.50;96.00
19803;DHT22;66074;50.764;6.090;2023-03-31T08:56:15;14.60;96.30
19803;DHT22;66074;50.764;6.090;2023-03-31T08:58:43;14.70;96.10
19803;DHT22;66074;50.764;6.090;2023-03-31T09:09:49;14.80;95.20
19803;DHT22;66074;50.764;6.090;2023-03-31T09:12:22;14.90;95.10
19803;DHT22;66074;50.764;6.090;2023-03-31T09:14:59;14.90;95.40
19803;DHT22;66074;50.764;6.090;2023-03-31T09:17:26;14.90;95.00
19803;DHT22;66074;50.764;6.090;2023-03-31T09:22:30;15.00;94.80
19803;DHT22;66074;50.764;6.090;2023-03-31T09:25:04;15.00;94.70
19803;DHT22;66074;50.764;6.090;2023-03-31T09:27:36;15.00;94.80
19803;DHT22;66074;50.764;6.090;2023-03-31T09:30:20;15.00;94.60
19803;DHT22;66074;50.764;6.090;2023-03-31T09:32:49;15.00;94.20
19803;DHT22;66074;50.764;6.090;2023-03-31T09:35:22;15.00;94.20
19803;DHT22;66074;50.764;6.090;2023-03-31T09:37:50;15.00;94.10
19803;DHT22;66074;50.764;6.090;2023-03-31T09:40:27;15.10;94.30
19803;DHT22;66074;50.764;6.090;2023-03-31T09:43:11;15.20;93.80
19803;DHT22;66074;50.764;6.090;2023-03-31T09:45:40;15.20;94.00
19803;DHT22;66074;50.764;6.090;2023-03-31T09:48:18;15.20;94.20
19803;DHT22;66074;50.764;6.090;2023-03-31T09:50:51;15.40;93.80
19803;DHT22;66074;50.764;6.090;2023-03-31T09:53:24;15.50;93.80
19803;DHT22;66074;50.764;6.090;2023-03-31T09:55:53;15.50;94.00
19803;DHT22;66074;50.764;6.090;2023-03-31T09:58:21;15.50;93.80
19803;DHT22;66074;50.764;6.090;2023-03-31T10:01:04;15.50;93.80
19803;DHT22;66074;50.764;6.090;2023-03-31T10:03:31;15.50;93.30
19803;DHT22;66074;50.764;6.090;2023-03-31T10:06:07;15.60;93.70
19803;DHT22;66074;50.764;6.090;2023-03-31T10:08:50;15.50;93.30
19803;DHT22;66074;50.764;6.090;2023-03-31T10:11:18;15.40;92.70
19803;DHT22;66074;50.764;6.090;2023-03-31T10:16:42;15.40;93.20
19803;DHT22;66074;50.764;6.090;2023-03-31T10:19:28;15.30;92.90
19803;DHT22;66074;50.764;6.090;2023-03-31T10:22:03;15.10;92.80
19803;DHT22;66074;50.764;6.090;2023-03-31T10:24:38;15.00;93.00
19803;DHT22;66074;50.764;6.090;2023-03-31T10:27:06;14.90;93.00
19803;DHT22;66074;50.764;6.090;2023-03-31T10:29:39;14.90;93.20
19803;DHT22;66074;50.764;6.090;2023-03-31T10:32:14;14.90;93.10
19803;DHT22;66074;50.764;6.090;2023-03-31T10:34:42;15.00;93.00
19803;DHT22;66074;50.764;6.090;2023-03-31T10:37:17;15.10;93.20
19803;DHT22;66074;50.764;6.090;2023-03-31T10:39:44;15.20;92.80
19803;DHT22;66074;50.764;6.090;2023-03-31T10:42:19;15.30;93.00
19803;DHT22;66074;50.764;6.090;2023-03-31T10:44:45;15.40;92.70
19803;DHT22;66074;50.764;6.090;2023-03-31T10:47:20;15.40;92.90
19803;DHT22;66074;50.764;6.090;2023-03-31T10:49:54;15.50;92.50
19803;DHT22;66074;50.764;6.090;2023-03-31T10:52:23;15.60;92.90
19803;DHT22;66074;50.764;6.090;2023-03-31T10:54:55;15.70;92.90
19803;DHT22;66074;50.764;6.090;2023-03-31T11:00:07;15.80;92.60
19803;DHT22;66074;50.764;6.090;2023-03-31T11:05:51;15.90;92.60
19803;DHT22;66074;50.764;6.090;2023-03-31T11:11:48;16.00;92.30
19803;DHT22;66074;50.764;6.090;2023-03-31T11:14:32;16.10;92.50
19803;DHT22;66074;50.764;6.090;2023-03-31T11:17:25;16.10;92.80
19803;DHT22;66074;50.764;6.090;2023-03-31T11:22:56;16.20;92.70
19803;DHT22;66074;50.764;6.090;2023-03-31T11:31:09;16.40;92.50
19803;DHT22;66074;50.764;6.090;2023-03-31T11:39:47;16.30;92.50
19803;DHT22;66074;50.764;6.090;2023-03-31T11:42:36;16.30;92.50
19803;DHT22;66074;50.764;6.090;2023-03-31T11:45:20;16.20;91.90
19803;DHT22;66074;50.764;6.090;2023-03-31T11:47:51;16.30;92.30
19803;DHT22;66074;50.764;6.090;2023-03-31T11:50:31;16.20;92.20
19803;DHT22;66074;50.764;6.090;2023-03-31T11:53:06;16.20;92.00
19803;DHT22;66074;50.764;6.090;2023-03-31T11:55:36;16.20;92.10
19803;DHT22;66074;50.764;6.090;2023-03-31T11:58:12;16.20;92.20
19803;DHT22;66074;50.764;6.090;2023-03-31T12:00:47;16.20;92.10
19803;DHT22;66074;50.764;6.090;2023-03-31T12:05:52;16.30;91.70
19803;DHT22;66074;50.764;6.090;2023-03-31T12:11:41;16.10;91.80
19803;DHT22;66074;50.764;6.090;2023-03-31T12:14:52;15.90;92.20
19803;DHT22;66074;50.764;6.090;2023-03-31T12:17:18;15.70;92.40
19803;DHT22;66074;50.764;6.090;2023-03-31T12:19:50;15.60;92.30
19803;DHT22;66074;50.764;6.090;2023-03-31T12:22:43;15.60;92.50
19803;DHT22;66074;50.764;6.090;2023-03-31T12:25:13;15.50;92.60
19803;DHT22;66074;50.764;6.090;2023-03-31T12:27:44;15.40;92.70
19803;DHT22;66074;50.764;6.090;2023-03-31T12:30:33;15.20;92.80
19803;DHT22;66074;50.764;6.090;2023-03-31T12:36:14;15.30;93.10
19803;DHT22;66074;50.764;6.090;2023-03-31T12:41:42;15.60;93.10
19803;DHT22;66074;50.764;6.090;2023-03-31T12:50:08;15.70;93.00
19803;DHT22;66074;50.764;6.090;2023-03-31T12:55:32;15.90;92.70
19803;DHT22;66074;50.764;6.090;2023-03-31T13:01:21;15.70;92.60
19803;DHT22;66074;50.764;6.090;2023-03-31T13:11:21;15.90;92.30
19803;DHT22;66074;50.764;6.090;2023-03-31T13:14:01;15.90;92.30
19803;DHT22;66074;50.764;6.090;2023-03-31T13:16:29;15.80;91.70
19803;DHT22;66074;50.764;6.090;2023-03-31T13:18:55;15.70;91.90
19803;DHT22;66074;50.764;6.090;2023-03-31T13:21:23;15.70;92.00
19803;DHT22;66074;50.764;6.090;2023-03-31T13:23:49;15.60;91.70
19803;DHT22;66074;50.764;6.090;2023-03-31T13:26:39;15.50;91.70
19803;DHT22;66074;50.764;6.090;2023-03-31T13:51:49;17.00;89.50
19803;DHT22;66074;50.764;6.090;2023-03-31T13:57:47;16.70;88.90
19803;DHT22;66074;50.764;6.090;2023-03-31T14:02:50;16.60;90.30
19803;DHT22;66074;50.764;6.090;2023-03-31T14:05:28;16.70;90.00
19803;DHT22;66074;50.764;6.090;2023-03-31T14:10:36;17.50;89.30
19803;DHT22;66074;50.764;6.090;2023-03-31T14:13:15;17.40;88.90
19803;DHT22;66074;50.764;6.090;2023-03-31T14:15:54;17.30;88.60
19803;DHT22;66074;50.764;6.090;2023-03-31T14:18:34;17.10;89.00
19803;DHT22;66074;50.764;6.090;2023-03-31T14:21:23;16.80;89.00
19803;DHT22;66074;50.764;6.090;2023-03-31T14:32:49;16.00;89.50
19803;DHT22;66074;50.764;6.090;2023-03-31T14:37:54;15.70;90.50
19803;DHT22;66074;50.764;6.090;2023-03-31T14:40:21;15.50;90.40
19803;DHT22;66074;50.764;6.090;2023-03-31T14:42:47;15.40;90.50
19803;DHT22;66074;50.764;6.090;2023-03-31T14:45:22;15.30;90.50
19803;DHT22;66074;50.764;6.090;2023-03-31T14:50:18;15.10;90.90
19803;DHT22;66074;50.764;6.090;2023-03-31T14:52:50;14.80;90.80
19803;DHT22;66074;50.764;6.090;2023-03-31T14:55:19;14.60;91.00
19803;DHT22;66074;50.764;6.090;2023-03-31T14:57:48;14.50;91.10
19803;DHT22;66074;50.764;6.090;2023-03-31T15:00:23;14.40;91.50
19803;DHT22;66074;50.764;6.090;2023-03-31T15:02:50;14.40;91.60
19803;DHT22;66074;50.764;6.090;2023-03-31T15:05:33;14.40;91.70
19803;DHT22;66074;50.764;6.090;2023-03-31T15:08:07;14.30;92.10
19803;DHT22;66074;50.764;6.090;2023-03-31T15:10:42;14.20;92.30
19803;DHT22;66074;50.764;6.090;2023-03-31T15:13:14;14.10;92.20
19803;DHT22;66074;50.764;6.090;2023-03-31T15:15:41;14.00;92.40
19803;DHT22;66074;50.764;6.090;2023-03-31T15:18:11;13.80;92.20
19803;DHT22;66074;50.764;6.090;2023-03-31T15:20:39;13.70;92.30
19803;DHT22;66074;50.764;6.090;2023-03-31T15:23:23;13.80;92.80
19803;DHT22;66074;50.764;6.090;2023-03-31T15:26:07;13.80;93.60
19803;DHT22;66074;50.764;6.090;2023-03-31T15:28:42;13.80;93.10
19803;DHT22;66074;50.764;6.090;2023-03-31T15:31:13;13.60;92.70
19803;DHT22;66074;50.764;6.090;2023-03-31T15:33:39;13.60;92.90
19803;DHT22;66074;50.764;6.090;2023-03-31T15:36:07;13.60;92.90
19803;DHT22;66074;50.764;6.090;2023-03-31T15:38:33;13.60;93.00
19803;DHT22;66074;50.764;6.090;2023-03-31T15:41:00;13.60;93.10
19803;DHT22;66074;50.764;6.090;2023-03-31T15:49:20;13.60;94.50
19803;DHT22;66074;50.764;6.090;2023-03-31T15:51:46;13.70;94.50
19803;DHT22;66074;50.764;6.090;2023-03-31T15:54:38;13.70;93.70
19803;DHT22;66074;50.764;6.090;2023-03-31T15:57:06;13.70;94.20
19803;DHT22;66074;50.764;6.090;2023-03-31T15:59:46;13.80;94.00
19803;DHT22;66074;50.764;6.090;2023-03-31T16:02:19;13.60;94.50
19803;DHT22;66074;50.764;6.090;2023-03-31T16:04:49;13.50;94.00
19803;DHT22;66074;50.764;6.090;2023-03-31T16:07:22;13.50;94.30
19803;DHT22;66074;50.764;6.090;2023-03-31T16:14:58;13.40;94.60
19803;DHT22;66074;50.764;6.090;2023-03-31T16:17:30;13.40;94.70
19803;DHT22;66074;50.764;6.090;2023-03-31T16:20:03;13.40;94.90
19803;DHT22;66074;50.764;6.090;2023-03-31T16:22:41;13.40;95.00
19803;DHT22;66074;50.764;6.090;2023-03-31T16:25:13;13.30;95.40
19803;DHT22;66074;50.764;6.090;2023-03-31T16:27:55;13.20;95.30
19803;DHT22;66074;50.764;6.090;2023-03-31T16:30:36;13.20;95.00
19803;DHT22;66074;50.764;6.090;2023-03-31T16:33:05;13.20;95.30
19803;DHT22;66074;50.764;6.090;2023-03-31T16:35:39;13.10;94.70
19803;DHT22;66074;50.764;6.090;2023-03-31T16:38:08;13.10;94.90
19803;DHT22;66074;50.764;6.090;2023-03-31T16:40:43;13.10;94.80
19803;DHT22;66074;50.764;6.090;2023-03-31T16:43:17;13.00;95.00
19803;DHT22;66074;50.764;6.090;2023-03-31T16:45:51;13.10;94.70
19803;DHT22;66074;50.764;6.090;2023-03-31T16:48:18;13.00;94.70
19803;DHT22;66074;50.764;6.090;2023-03-31T16:50:48;13.00;94.60
19803;DHT22;66074;50.764;6.090;2023-03-31T16:53:17;12.90;94.80
19803;DHT22;66074;50.764;6.090;2023-03-31T16:55:43;12.90;94.50
19803;DHT22;66074;50.764;6.090;2023-03-31T16:58:08;12.90;94.70
19803;DHT22;66074;50.764;6.090;2023-03-31T17:00:35;12.80;94.70
19803;DHT22;66074;50.764;6.090;2023-03-31T17:03:02;12.80;95.00
19803;DHT22;66074;50.764;6.090;2023-03-31T17:05:29;12.80;95.00
19803;DHT22;66074;50.764;6.090;2023-03-31T17:07:58;12.70;95.10
19803;DHT22;66074;50.764;6.090;2023-03-31T17:10:24;12.70;95.00
19803;DHT22;66074;50.764;6.090;2023-03-31T17:12:50;12.60;94.90
19803;DHT22;66074;50.764;6.090;2023-03-31T17:15:15;12.50;95.00
19803;DHT22;66074;50.764;6.090;2023-03-31T17:17:41;12.50;95.10
19803;DHT22;66074;50.764;6.090;2023-03-31T17:20:07;12.40;95.00
19803;DHT22;66074;50.764;6.090;2023-03-31T17:22:33;12.40;94.90
19803;DHT22;66074;50.764;6.090;2023-03-31T17:24:59;12.30;94.90
19803;DHT22;66074;50.764;6.090;2023-03-31T17:27:26;12.40;94.90
19803;DHT22;66074;50.764;6.090;2023-03-31T17:29:53;12.40;94.90
19803;DHT22;66074;50.764;6.090;2023-03-31T17:32:19;12.40;94.80
19803;DHT22;66074;50.764;6.090;2023-03-31T17:34:45;12.30;94.80
19803;DHT22;66074;50.764;6.090;2023-03-31T17:37:15;12.30;94.80
19803;DHT22;66074;50.764;6.090;2023-03-31T17:39:41;12.30;94.90
19803;DHT22;66074;50.764;6.090;2023-03-31T17:42:08;12.40;95.00
19803;DHT22;66074;50.764;6.090;2023-03-31T17:44:34;12.40;95.00
19803;DHT22;66074;50.764;6.090;2023-03-31T17:47:00;12.40;95.10
19803;DHT22;66074;50.764;6.090;2023-03-31T17:49:26;12.40;95.40
19803;DHT22;66074;50.764;6.090;2023-03-31T17:51:52;12.40;95.30
19803;DHT22;66074;50.764;6.090;2023-03-31T17:54:18;12.30;95.50
19803;DHT22;66074;50.764;6.090;2023-03-31T17:56:44;12.30;95.50
19803;DHT22;66074;50.764;6.090;2023-03-31T17:59:16;12.30;95.60
19803;DHT22;66074;50.764;6.090;2023-03-31T18:01:43;12.10;95.80
19803;DHT22;66074;50.764;6.090;2023-03-31T18:04:09;12.10;95.90
19803;DHT22;66074;50.764;6.090;2023-03-31T18:06:34;12.10;96.20
19803;DHT22;66074;50.764;6.090;2023-03-31T18:09:00;12.10;96.40
19803;DHT22;66074;50.764;6.090;2023-03-31T18:11:26;12.00;96.20
19803;DHT22;66074;50.764;6.090;2023-03-31T18:13:52;11.90;96.20
19803;DHT22;66074;50.764;6.090;2023-03-31T18:16:18;11.90;96.20
19803;DHT22;66074;50.764;6.090;2023-03-31T18:18:44;11.90;96.20
19803;DHT22;66074;50.764;6.090;2023-03-31T18:21:11;11.90;96.20
19803;DHT22;66074;50.764;6.090;2023-03-31T18:23:38;11.80;96.20
19803;DHT22;66074;50.764;6.090;2023-03-31T18:26:09;11.80;96.20
19803;DHT22;66074;50.764;6.090;2023-03-31T18:28:35;11.90;96.30
19803;DHT22;66074;50.764;6.090;2023-03-31T18:31:05;11.80;96.30
19803;DHT22;66074;50.764;6.090;2023-03-31T18:33:31;11.80;96.20
19803;DHT22;66074;50.764;6.090;2023-03-31T18:35:56;11.80;96.20
19803;DHT22;66074;50.764;6.090;2023-03-31T18:38:23;11.80;96.20
19803;DHT22;66074;50.764;6.090;2023-03-31T18:40:50;11.90;96.20
19803;DHT22;66074;50.764;6.090;2023-03-31T18:43:17;11.70;96.20